Aviation Digital Data Service (ADDS)

Output produced by METARs form (1032 UTC 27 November 2014)
found at http://aviationweather.gov/adds/metars/
 
KATL 270945Z 2710/2812 28012G20KT P6SM SCT060 
     FM271200 30014G24KT P6SM BKN035 
     FM271800 31015G25KT P6SM SCT040 
     FM280000 32008KT P6SM FEW050